sensor_id;sensor_type;location;lat;lon;timestamp;pressure;altitude;pressure_sealevel;temperature;humidity
48095;BME280;33874;52.070;-0.516;2023-01-28T00:01:45;102836.61;;;3.43;75.59
48095;BME280;33874;52.070;-0.516;2023-01-28T00:04:37;102837.55;;;3.40;75.58
48095;BME280;33874;52.070;-0.516;2023-01-28T00:07:05;102841.48;;;3.34;75.50
48095;BME280;33874;52.070;-0.516;2023-01-28T00:09:36;102842.44;;;3.30;75.53
48095;BME280;33874;52.070;-0.516;2023-01-28T00:12:05;102841.96;;;3.28;75.60
48095;BME280;33874;52.070;-0.516;2023-01-28T00:14:41;102839.35;;;3.28;75.67
48095;BME280;33874;52.070;-0.516;2023-01-28T00:17:19;102833.08;;;3.29;75.71
48095;BME280;33874;52.070;-0.516;2023-01-28T00:26:42;102824.00;;;3.23;75.49
48095;BME280;33874;52.070;-0.516;2023-01-28T00:29:13;102815.04;;;3.20;75.51
48095;BME280;33874;52.070;-0.516;2023-01-28T00:32:22;102814.55;;;3.17;75.54
48095;BME280;33874;52.070;-0.516;2023-01-28T00:36:18;102822.08;;;3.15;75.52
48095;BME280;33874;52.070;-0.516;2023-01-28T00:49:39;102831.20;;;3.02;75.10
48095;BME280;33874;52.070;-0.516;2023-01-28T00:52:32;102837.67;;;3.00;75.01
48095;BME280;33874;52.070;-0.516;2023-01-28T00:55:12;102840.95;;;3.01;75.00
48095;BME280;33874;52.070;-0.516;2023-01-28T00:57:41;102842.49;;;3.01;75.03
48095;BME280;33874;52.070;-0.516;2023-01-28T01:00:19;102842.51;;;3.01;74.75
48095;BME280;33874;52.070;-0.516;2023-01-28T01:02:54;102838.84;;;3.02;74.80
48095;BME280;33874;52.070;-0.516;2023-01-28T01:05:32;102838.81;;;3.03;74.61
48095;BME280;33874;52.070;-0.516;2023-01-28T01:28:33;102817.73;;;2.89;74.39
48095;BME280;33874;52.070;-0.516;2023-01-28T01:37:55;102806.59;;;2.99;74.34
48095;BME280;33874;52.070;-0.516;2023-01-28T01:40:23;102808.52;;;2.98;74.06
48095;BME280;33874;52.070;-0.516;2023-01-28T01:42:52;102801.83;;;2.94;73.95
48095;BME280;33874;52.070;-0.516;2023-01-28T01:45:33;102797.85;;;2.93;74.01
48095;BME280;33874;52.070;-0.516;2023-01-28T01:48:05;102798.03;;;2.93;74.40
48095;BME280;33874;52.070;-0.516;2023-01-28T02:42:56;102825.60;;;2.86;73.99
48095;BME280;33874;52.070;-0.516;2023-01-28T02:45:32;102823.05;;;2.83;74.01
48095;BME280;33874;52.070;-0.516;2023-01-28T03:06:49;102825.23;;;2.78;73.59
48095;BME280;33874;52.070;-0.516;2023-01-28T03:13:46;102834.85;;;2.83;73.55
48095;BME280;33874;52.070;-0.516;2023-01-28T03:17:15;102837.27;;;2.85;73.50
48095;BME280;33874;52.070;-0.516;2023-01-28T03:20:42;102839.66;;;2.87;73.59
48095;BME280;33874;52.070;-0.516;2023-01-28T03:31:36;102839.60;;;2.80;73.62
48095;BME280;33874;52.070;-0.516;2023-01-28T03:34:57;102838.20;;;2.81;73.60
48095;BME280;33874;52.070;-0.516;2023-01-28T03:42:10;102834.61;;;2.87;73.77
48095;BME280;33874;52.070;-0.516;2023-01-28T03:48:24;102836.25;;;2.92;73.77
48095;BME280;33874;52.070;-0.516;2023-01-28T04:06:15;102816.98;;;2.92;74.09
48095;BME280;33874;52.070;-0.516;2023-01-28T04:16:21;102811.91;;;2.94;74.48
48095;BME280;33874;52.070;-0.516;2023-01-28T04:47:01;102799.55;;;2.77;74.90
48095;BME280;33874;52.070;-0.516;2023-01-28T05:01:15;102804.55;;;2.70;75.13
48095;BME280;33874;52.070;-0.516;2023-01-28T05:21:25;102814.30;;;2.69;75.48
48095;BME280;33874;52.070;-0.516;2023-01-28T05:48:29;102818.41;;;2.90;75.98
48095;BME280;33874;52.070;-0.516;2023-01-28T05:51:08;102822.70;;;2.93;75.86
48095;BME280;33874;52.070;-0.516;2023-01-28T05:53:36;102820.64;;;2.92;75.68
48095;BME280;33874;52.070;-0.516;2023-01-28T05:56:05;102819.45;;;2.91;75.65
48095;BME280;33874;52.070;-0.516;2023-01-28T05:58:37;102820.33;;;2.90;75.65
48095;BME280;33874;52.070;-0.516;2023-01-28T06:01:05;102820.21;;;2.86;75.39
48095;BME280;33874;52.070;-0.516;2023-01-28T06:03:36;102817.70;;;2.82;75.34
48095;BME280;33874;52.070;-0.516;2023-01-28T06:06:05;102823.80;;;2.81;75.43
48095;BME280;33874;52.070;-0.516;2023-01-28T06:08:33;102817.75;;;2.79;75.30
48095;BME280;33874;52.070;-0.516;2023-01-28T06:11:04;102816.02;;;2.79;75.63
48095;BME280;33874;52.070;-0.516;2023-01-28T06:13:35;102816.50;;;2.81;75.82
48095;BME280;33874;52.070;-0.516;2023-01-28T06:16:04;102820.64;;;2.82;75.87
48095;BME280;33874;52.070;-0.516;2023-01-28T06:32:23;102827.40;;;2.93;76.21
48095;BME280;33874;52.070;-0.516;2023-01-28T07:16:40;102834.38;;;3.00;75.94
48095;BME280;33874;52.070;-0.516;2023-01-28T07:40:27;102831.15;;;2.95;75.83
48095;BME280;33874;52.070;-0.516;2023-01-28T07:42:59;102824.24;;;2.94;75.62
48095;BME280;33874;52.070;-0.516;2023-01-28T07:45:39;102824.65;;;2.91;75.54
48095;BME280;33874;52.070;-0.516;2023-01-28T07:48:30;102829.73;;;2.88;75.63
48095;BME280;33874;52.070;-0.516;2023-01-28T07:50:59;102829.61;;;2.85;75.63
48095;BME280;33874;52.070;-0.516;2023-01-28T07:53:28;102830.66;;;2.85;75.69
48095;BME280;33874;52.070;-0.516;2023-01-28T07:56:00;102833.11;;;2.84;75.87
48095;BME280;33874;52.070;-0.516;2023-01-28T07:58:38;102833.45;;;2.84;75.80
48095;BME280;33874;52.070;-0.516;2023-01-28T08:01:07;102831.86;;;2.86;76.09
48095;BME280;33874;52.070;-0.516;2023-01-28T08:03:38;102830.79;;;2.88;76.08
48095;BME280;33874;52.070;-0.516;2023-01-28T08:06:52;102836.67;;;2.89;76.05
48095;BME280;33874;52.070;-0.516;2023-01-28T08:09:26;102833.34;;;2.90;75.95
48095;BME280;33874;52.070;-0.516;2023-01-28T08:12:29;102834.51;;;2.94;76.08
48095;BME280;33874;52.070;-0.516;2023-01-28T08:15:20;102842.95;;;2.96;76.04
48095;BME280;33874;52.070;-0.516;2023-01-28T08:18:01;102852.67;;;2.97;75.84
48095;BME280;33874;52.070;-0.516;2023-01-28T08:33:21;102873.31;;;2.98;76.09
48095;BME280;33874;52.070;-0.516;2023-01-28T08:35:50;102872.08;;;2.99;76.04
48095;BME280;33874;52.070;-0.516;2023-01-28T08:38:26;102867.84;;;3.02;76.16
48095;BME280;33874;52.070;-0.516;2023-01-28T08:40:57;102872.30;;;3.05;76.05
48095;BME280;33874;52.070;-0.516;2023-01-28T08:44:07;102876.27;;;3.07;76.02
48095;BME280;33874;52.070;-0.516;2023-01-28T08:46:44;102878.83;;;3.09;75.95
48095;BME280;33874;52.070;-0.516;2023-01-28T08:49:35;102883.10;;;3.13;76.03
48095;BME280;33874;52.070;-0.516;2023-01-28T08:52:03;102894.66;;;3.17;75.99
48095;BME280;33874;52.070;-0.516;2023-01-28T08:54:35;102899.48;;;3.19;75.90
48095;BME280;33874;52.070;-0.516;2023-01-28T08:57:03;102906.73;;;3.22;75.88
48095;BME280;33874;52.070;-0.516;2023-01-28T08:59:34;102905.83;;;3.24;75.82
48095;BME280;33874;52.070;-0.516;2023-01-28T09:02:05;102903.31;;;3.27;75.90
48095;BME280;33874;52.070;-0.516;2023-01-28T09:04:56;102901.89;;;3.29;75.91
48095;BME280;33874;52.070;-0.516;2023-01-28T09:07:26;102901.85;;;3.31;75.85
48095;BME280;33874;52.070;-0.516;2023-01-28T09:09:55;102894.92;;;3.30;75.74
48095;BME280;33874;52.070;-0.516;2023-01-28T09:12:34;102887.56;;;3.33;75.88
48095;BME280;33874;52.070;-0.516;2023-01-28T09:15:04;102882.96;;;3.37;75.90
48095;BME280;33874;52.070;-0.516;2023-01-28T09:17:35;102878.86;;;3.42;75.84
48095;BME280;33874;52.070;-0.516;2023-01-28T09:20:05;102877.21;;;3.46;75.76
48095;BME280;33874;52.070;-0.516;2023-01-28T09:26:03;102865.48;;;3.58;75.97
48095;BME280;33874;52.070;-0.516;2023-01-28T09:31:32;102860.18;;;3.70;75.73
48095;BME280;33874;52.070;-0.516;2023-01-28T09:34:12;102862.70;;;3.74;75.74
48095;BME280;33874;52.070;-0.516;2023-01-28T09:36:42;102864.59;;;3.75;75.57
48095;BME280;33874;52.070;-0.516;2023-01-28T09:39:11;102864.35;;;3.77;75.48
48095;BME280;33874;52.070;-0.516;2023-01-28T09:50:25;102832.27;;;4.03;75.43
48095;BME280;33874;52.070;-0.516;2023-01-28T09:53:01;102834.67;;;4.11;75.14
48095;BME280;33874;52.070;-0.516;2023-01-28T09:55:36;102831.42;;;4.16;74.92
48095;BME280;33874;52.070;-0.516;2023-01-28T09:58:11;102836.65;;;4.23;75.16
48095;BME280;33874;52.070;-0.516;2023-01-28T10:00:52;102843.40;;;4.31;75.07
48095;BME280;33874;52.070;-0.516;2023-01-28T10:12:07;102836.42;;;4.59;74.85
48095;BME280;33874;52.070;-0.516;2023-01-28T10:15:19;102835.59;;;4.70;74.64
48095;BME280;33874;52.070;-0.516;2023-01-28T10:17:44;102827.56;;;4.84;74.71
48095;BME280;33874;52.070;-0.516;2023-01-28T10:20:22;102819.95;;;4.95;74.54
48095;BME280;33874;52.070;-0.516;2023-01-28T10:23:00;102811.33;;;5.03;74.40
48095;BME280;33874;52.070;-0.516;2023-01-28T10:25:52;102804.33;;;5.11;74.17
48095;BME280;33874;52.070;-0.516;2023-01-28T10:28:27;102794.44;;;5.20;74.17
48095;BME280;33874;52.070;-0.516;2023-01-28T10:30:59;102797.11;;;5.25;73.84
48095;BME280;33874;52.070;-0.516;2023-01-28T10:33:40;102798.30;;;5.31;74.09
48095;BME280;33874;52.070;-0.516;2023-01-28T10:36:14;102796.19;;;5.38;73.90
48095;BME280;33874;52.070;-0.516;2023-01-28T10:39:05;102801.46;;;5.43;73.55
48095;BME280;33874;52.070;-0.516;2023-01-28T10:42:41;102790.84;;;5.47;73.37
48095;BME280;33874;52.070;-0.516;2023-01-28T10:51:37;102786.62;;;5.60;73.26
48095;BME280;33874;52.070;-0.516;2023-01-28T10:54:33;102787.10;;;5.67;73.35
48095;BME280;33874;52.070;-0.516;2023-01-28T10:57:03;102793.81;;;5.75;73.40
48095;BME280;33874;52.070;-0.516;2023-01-28T10:59:34;102789.16;;;5.78;73.42
48095;BME280;33874;52.070;-0.516;2023-01-28T11:02:28;102794.98;;;5.82;73.19
48095;BME280;33874;52.070;-0.516;2023-01-28T11:05:21;102798.32;;;5.75;72.62
48095;BME280;33874;52.070;-0.516;2023-01-28T11:07:49;102798.21;;;5.74;72.61
48095;BME280;33874;52.070;-0.516;2023-01-28T11:10:36;102795.95;;;5.79;72.99
48095;BME280;33874;52.070;-0.516;2023-01-28T11:13:22;102795.50;;;5.88;72.97
48095;BME280;33874;52.070;-0.516;2023-01-28T11:16:44;102796.64;;;5.90;72.68
48095;BME280;33874;52.070;-0.516;2023-01-28T11:19:12;102803.05;;;5.93;72.67
48095;BME280;33874;52.070;-0.516;2023-01-28T11:22:46;102810.30;;;5.95;72.23
48095;BME280;33874;52.070;-0.516;2023-01-28T11:25:40;102815.20;;;5.95;72.21
48095;BME280;33874;52.070;-0.516;2023-01-28T11:29:37;102815.25;;;5.99;72.30
48095;BME280;33874;52.070;-0.516;2023-01-28T11:31:59;102809.45;;;6.00;72.20
48095;BME280;33874;52.070;-0.516;2023-01-28T11:34:48;102805.34;;;6.02;72.19
48095;BME280;33874;52.070;-0.516;2023-01-28T11:44:38;102818.46;;;6.02;71.53
48095;BME280;33874;52.070;-0.516;2023-01-28T12:16:40;102801.36;;;6.33;71.34
48095;BME280;33874;52.070;-0.516;2023-01-28T12:19:49;102798.89;;;6.34;71.15
48095;BME280;33874;52.070;-0.516;2023-01-28T12:38:15;102784.90;;;6.03;71.69
48095;BME280;33874;52.070;-0.516;2023-01-28T12:41:15;102786.33;;;5.97;72.07
48095;BME280;33874;52.070;-0.516;2023-01-28T12:44:01;102783.20;;;5.91;72.14
48095;BME280;33874;52.070;-0.516;2023-01-28T12:53:32;102769.11;;;5.95;72.38
48095;BME280;33874;52.070;-0.516;2023-01-28T12:56:11;102768.23;;;6.01;72.61
48095;BME280;33874;52.070;-0.516;2023-01-28T12:58:49;102768.82;;;6.04;72.80
48095;BME280;33874;52.070;-0.516;2023-01-28T13:01:25;102757.41;;;6.06;72.79
48095;BME280;33874;52.070;-0.516;2023-01-28T13:04:02;102750.38;;;6.07;72.69
48095;BME280;33874;52.070;-0.516;2023-01-28T13:07:00;102753.88;;;6.12;73.03
48095;BME280;33874;52.070;-0.516;2023-01-28T13:09:36;102750.18;;;6.13;73.03
48095;BME280;33874;52.070;-0.516;2023-01-28T13:12:06;102745.92;;;6.15;73.06
48095;BME280;33874;52.070;-0.516;2023-01-28T13:14:40;102741.63;;;6.18;73.19
48095;BME280;33874;52.070;-0.516;2023-01-28T13:17:27;102744.73;;;6.24;73.20
48095;BME280;33874;52.070;-0.516;2023-01-28T13:19:57;102750.40;;;6.26;73.18
48095;BME280;33874;52.070;-0.516;2023-01-28T13:22:43;102746.13;;;6.24;73.07
48095;BME280;33874;52.070;-0.516;2023-01-28T13:25:31;102749.80;;;6.24;73.31
48095;BME280;33874;52.070;-0.516;2023-01-28T13:31:49;102747.88;;;6.14;73.15
48095;BME280;33874;52.070;-0.516;2023-01-28T13:35:02;102742.14;;;6.08;73.29
48095;BME280;33874;52.070;-0.516;2023-01-28T13:37:45;102736.02;;;6.04;73.21
48095;BME280;33874;52.070;-0.516;2023-01-28T13:43:22;102731.11;;;6.04;73.58
48095;BME280;33874;52.070;-0.516;2023-01-28T13:45:35;102736.04;;;6.03;73.60
48095;BME280;33874;52.070;-0.516;2023-01-28T13:51:38;102733.60;;;5.97;73.67
48095;BME280;33874;52.070;-0.516;2023-01-28T13:54:23;102736.59;;;5.97;73.88
48095;BME280;33874;52.070;-0.516;2023-01-28T14:17:03;102726.36;;;5.95;74.41
48095;BME280;33874;52.070;-0.516;2023-01-28T14:19:38;102735.73;;;5.90;74.25
48095;BME280;33874;52.070;-0.516;2023-01-28T14:22:29;102738.31;;;5.86;74.43
48095;BME280;33874;52.070;-0.516;2023-01-28T14:25:29;102741.30;;;5.86;74.64
48095;BME280;33874;52.070;-0.516;2023-01-28T14:28:22;102746.27;;;5.83;74.46
48095;BME280;33874;52.070;-0.516;2023-01-28T14:31:08;102745.63;;;5.81;74.53
48095;BME280;33874;52.070;-0.516;2023-01-28T14:33:49;102752.55;;;5.78;74.53
48095;BME280;33874;52.070;-0.516;2023-01-28T14:36:43;102759.63;;;5.74;74.56
48095;BME280;33874;52.070;-0.516;2023-01-28T14:39:48;102761.16;;;5.70;74.71
48095;BME280;33874;52.070;-0.516;2023-01-28T14:42:25;102767.36;;;5.67;74.91
48095;BME280;33874;52.070;-0.516;2023-01-28T14:45:05;102768.88;;;5.63;74.76
48095;BME280;33874;52.070;-0.516;2023-01-28T14:59:43;102775.45;;;5.60;75.05
48095;BME280;33874;52.070;-0.516;2023-01-28T15:02:23;102775.05;;;5.62;75.13
48095;BME280;33874;52.070;-0.516;2023-01-28T15:05:19;102768.45;;;5.61;75.26
48095;BME280;33874;52.070;-0.516;2023-01-28T15:08:08;102763.30;;;5.58;75.12
48095;BME280;33874;52.070;-0.516;2023-01-28T15:10:51;102768.33;;;5.60;75.14
48095;BME280;33874;52.070;-0.516;2023-01-28T15:13:29;102764.91;;;5.62;75.20
48095;BME280;33874;52.070;-0.516;2023-01-28T15:16:11;102758.24;;;5.63;75.34
48095;BME280;33874;52.070;-0.516;2023-01-28T15:18:44;102757.30;;;5.66;75.27
48095;BME280;33874;52.070;-0.516;2023-01-28T15:28:48;102743.36;;;5.65;74.86
48095;BME280;33874;52.070;-0.516;2023-01-28T15:31:57;102741.14;;;5.64;74.87
48095;BME280;33874;52.070;-0.516;2023-01-28T15:38:11;102742.38;;;5.58;74.68
48095;BME280;33874;52.070;-0.516;2023-01-28T15:40:45;102740.44;;;5.58;74.94
48095;BME280;33874;52.070;-0.516;2023-01-28T15:43:18;102736.24;;;5.59;75.05
48095;BME280;33874;52.070;-0.516;2023-01-28T15:45:49;102738.00;;;5.58;74.97
48095;BME280;33874;52.070;-0.516;2023-01-28T15:48:24;102741.55;;;5.56;75.02
48095;BME280;33874;52.070;-0.516;2023-01-28T15:51:21;102740.54;;;5.56;75.14
48095;BME280;33874;52.070;-0.516;2023-01-28T15:58:03;102744.37;;;5.55;75.15
48095;BME280;33874;52.070;-0.516;2023-01-28T16:07:33;102745.90;;;5.51;75.38
48095;BME280;33874;52.070;-0.516;2023-01-28T16:10:20;102744.23;;;5.49;75.26
48095;BME280;33874;52.070;-0.516;2023-01-28T16:12:54;102748.09;;;5.48;75.61
48095;BME280;33874;52.070;-0.516;2023-01-28T16:15:25;102749.67;;;5.48;75.51
48095;BME280;33874;52.070;-0.516;2023-01-28T16:17:56;102751.48;;;5.46;75.27
48095;BME280;33874;52.070;-0.516;2023-01-28T16:20:48;102750.85;;;5.43;75.33
48095;BME280;33874;52.070;-0.516;2023-01-28T16:30:02;102756.39;;;5.28;75.55
48095;BME280;33874;52.070;-0.516;2023-01-28T16:32:50;102756.33;;;5.24;75.59
48095;BME280;33874;52.070;-0.516;2023-01-28T16:52:26;102761.54;;;5.20;76.13
48095;BME280;33874;52.070;-0.516;2023-01-28T16:54:54;102768.05;;;5.17;76.35
48095;BME280;33874;52.070;-0.516;2023-01-28T16:57:25;102766.55;;;5.15;76.27
48095;BME280;33874;52.070;-0.516;2023-01-28T16:59:54;102771.73;;;5.11;76.32
48095;BME280;33874;52.070;-0.516;2023-01-28T17:02:22;102770.76;;;5.09;76.38
48095;BME280;33874;52.070;-0.516;2023-01-28T17:04:51;102773.80;;;5.06;76.56
48095;BME280;33874;52.070;-0.516;2023-01-28T17:14:51;102783.69;;;4.95;76.68
48095;BME280;33874;52.070;-0.516;2023-01-28T17:17:48;102786.13;;;4.95;76.79
48095;BME280;33874;52.070;-0.516;2023-01-28T17:20:50;102785.20;;;4.96;76.95
48095;BME280;33874;52.070;-0.516;2023-01-28T17:23:21;102782.92;;;4.98;77.18
48095;BME280;33874;52.070;-0.516;2023-01-28T17:25:54;102776.29;;;4.97;77.06
48095;BME280;33874;52.070;-0.516;2023-01-28T17:28:22;102776.52;;;4.96;77.33
48095;BME280;33874;52.070;-0.516;2023-01-28T17:30:54;102778.33;;;4.94;77.04
48095;BME280;33874;52.070;-0.516;2023-01-28T17:33:22;102777.80;;;4.93;77.46
48095;BME280;33874;52.070;-0.516;2023-01-28T17:35:50;102775.52;;;4.94;77.53
48095;BME280;33874;52.070;-0.516;2023-01-28T17:38:19;102778.85;;;4.94;77.50
48095;BME280;33874;52.070;-0.516;2023-01-28T17:40:47;102780.95;;;4.93;77.57
48095;BME280;33874;52.070;-0.516;2023-01-28T17:43:16;102778.21;;;4.92;77.46
48095;BME280;33874;52.070;-0.516;2023-01-28T17:45:44;102780.33;;;4.90;77.48
48095;BME280;33874;52.070;-0.516;2023-01-28T17:48:12;102777.55;;;4.90;77.68
48095;BME280;33874;52.070;-0.516;2023-01-28T17:50:41;102778.06;;;4.90;77.62
48095;BME280;33874;52.070;-0.516;2023-01-28T17:53:09;102778.92;;;4.92;77.84
48095;BME280;33874;52.070;-0.516;2023-01-28T17:55:40;102777.11;;;4.94;77.96
48095;BME280;33874;52.070;-0.516;2023-01-28T17:58:09;102772.02;;;4.95;77.95
48095;BME280;33874;52.070;-0.516;2023-01-28T18:00:37;102768.09;;;4.92;78.07
48095;BME280;33874;52.070;-0.516;2023-01-28T18:03:05;102766.89;;;4.92;77.93
48095;BME280;33874;52.070;-0.516;2023-01-28T18:05:34;102767.92;;;4.92;78.15
48095;BME280;33874;52.070;-0.516;2023-01-28T18:08:02;102767.59;;;4.92;78.12
48095;BME280;33874;52.070;-0.516;2023-01-28T18:10:31;102766.73;;;4.91;78.20
48095;BME280;33874;52.070;-0.516;2023-01-28T18:12:59;102763.03;;;4.92;78.19
48095;BME280;33874;52.070;-0.516;2023-01-28T18:15:48;102762.63;;;4.94;78.21
48095;BME280;33874;52.070;-0.516;2023-01-28T18:18:16;102762.77;;;4.95;78.48
48095;BME280;33874;52.070;-0.516;2023-01-28T18:20:56;102756.91;;;4.99;78.35
48095;BME280;33874;52.070;-0.516;2023-01-28T18:23:28;102756.63;;;5.02;78.73
48095;BME280;33874;52.070;-0.516;2023-01-28T18:25:57;102755.62;;;5.07;78.70
48095;BME280;33874;52.070;-0.516;2023-01-28T18:28:36;102759.05;;;5.10;78.67
48095;BME280;33874;52.070;-0.516;2023-01-28T18:31:06;102762.16;;;5.10;78.42
48095;BME280;33874;52.070;-0.516;2023-01-28T18:33:35;102764.98;;;5.09;78.40
48095;BME280;33874;52.070;-0.516;2023-01-28T18:36:06;102764.29;;;5.09;78.52
48095;BME280;33874;52.070;-0.516;2023-01-28T18:38:56;102768.77;;;5.11;78.79
48095;BME280;33874;52.070;-0.516;2023-01-28T18:41:33;102768.59;;;5.11;78.65
48095;BME280;33874;52.070;-0.516;2023-01-28T18:44:16;102767.86;;;5.12;78.70
48095;BME280;33874;52.070;-0.516;2023-01-28T18:47:14;102769.61;;;5.12;78.59
48095;BME280;33874;52.070;-0.516;2023-01-28T18:52:37;102768.92;;;5.11;78.48
48095;BME280;33874;52.070;-0.516;2023-01-28T18:55:11;102764.39;;;5.11;78.48
48095;BME280;33874;52.070;-0.516;2023-01-28T18:57:42;102760.58;;;5.11;78.43
48095;BME280;33874;52.070;-0.516;2023-01-28T19:00:11;102764.61;;;5.10;78.74
48095;BME280;33874;52.070;-0.516;2023-01-28T19:02:42;102760.63;;;5.09;78.55
48095;BME280;33874;52.070;-0.516;2023-01-28T19:05:10;102759.06;;;5.09;78.72
48095;BME280;33874;52.070;-0.516;2023-01-28T19:07:39;102758.20;;;5.09;78.49
48095;BME280;33874;52.070;-0.516;2023-01-28T19:10:07;102761.79;;;5.05;78.45
48095;BME280;33874;52.070;-0.516;2023-01-28T19:12:39;102766.90;;;5.03;78.56
48095;BME280;33874;52.070;-0.516;2023-01-28T19:15:16;102761.92;;;5.00;78.66
48095;BME280;33874;52.070;-0.516;2023-01-28T19:17:48;102761.81;;;4.98;78.64
48095;BME280;33874;52.070;-0.516;2023-01-28T19:20:16;102761.46;;;4.98;78.65
48095;BME280;33874;52.070;-0.516;2023-01-28T19:22:48;102761.31;;;4.98;78.65
48095;BME280;33874;52.070;-0.516;2023-01-28T19:25:16;102762.36;;;4.98;78.90
48095;BME280;33874;52.070;-0.516;2023-01-28T19:27:45;102762.33;;;4.98;78.93
48095;BME280;33874;52.070;-0.516;2023-01-28T19:30:15;102762.13;;;4.99;79.01
48095;BME280;33874;52.070;-0.516;2023-01-28T19:32:47;102761.59;;;5.00;78.76
48095;BME280;33874;52.070;-0.516;2023-01-28T19:35:23;102759.20;;;4.98;78.69
48095;BME280;33874;52.070;-0.516;2023-01-28T19:37:53;102757.31;;;4.98;79.01
48095;BME280;33874;52.070;-0.516;2023-01-28T19:40:22;102756.43;;;4.97;78.99
48095;BME280;33874;52.070;-0.516;2023-01-28T19:42:53;102753.31;;;4.97;78.91
48095;BME280;33874;52.070;-0.516;2023-01-28T19:45:22;102750.34;;;4.98;78.95
48095;BME280;33874;52.070;-0.516;2023-01-28T19:47:50;102747.08;;;4.96;78.95
48095;BME280;33874;52.070;-0.516;2023-01-28T19:50:18;102750.25;;;4.95;79.03
48095;BME280;33874;52.070;-0.516;2023-01-28T19:52:46;102757.39;;;4.94;79.05
48095;BME280;33874;52.070;-0.516;2023-01-28T19:55:44;102763.87;;;4.94;78.99
48095;BME280;33874;52.070;-0.516;2023-01-28T19:58:11;102775.70;;;4.94;79.00
48095;BME280;33874;52.070;-0.516;2023-01-28T20:00:40;102780.52;;;4.91;78.82
48095;BME280;33874;52.070;-0.516;2023-01-28T20:03:11;102792.17;;;4.91;79.07
48095;BME280;33874;52.070;-0.516;2023-01-28T20:05:39;102794.61;;;4.92;79.22
48095;BME280;33874;52.070;-0.516;2023-01-28T20:08:09;102790.52;;;4.94;79.33
48095;BME280;33874;52.070;-0.516;2023-01-28T20:10:37;102790.80;;;4.96;79.57
48095;BME280;33874;52.070;-0.516;2023-01-28T20:13:08;102788.31;;;4.98;79.41
48095;BME280;33874;52.070;-0.516;2023-01-28T20:15:40;102790.57;;;4.98;79.35
48095;BME280;33874;52.070;-0.516;2023-01-28T20:18:08;102794.95;;;4.98;79.44
48095;BME280;33874;52.070;-0.516;2023-01-28T20:20:56;102793.20;;;4.98;79.47
48095;BME280;33874;52.070;-0.516;2023-01-28T20:23:26;102791.98;;;4.98;79.48
48095;BME280;33874;52.070;-0.516;2023-01-28T20:25:55;102785.36;;;4.98;79.62
48095;BME280;33874;52.070;-0.516;2023-01-28T20:28:40;102787.80;;;4.97;79.33
48095;BME280;33874;52.070;-0.516;2023-01-28T20:31:29;102787.83;;;4.96;79.54
48095;BME280;33874;52.070;-0.516;2023-01-28T20:34:14;102783.98;;;4.97;79.55
48095;BME280;33874;52.070;-0.516;2023-01-28T20:37:06;102780.15;;;4.97;79.38
48095;BME280;33874;52.070;-0.516;2023-01-28T20:39:40;102778.94;;;4.96;79.46
48095;BME280;33874;52.070;-0.516;2023-01-28T20:42:44;102777.71;;;4.96;79.42
48095;BME280;33874;52.070;-0.516;2023-01-28T20:45:14;102784.89;;;4.96;79.54
48095;BME280;33874;52.070;-0.516;2023-01-28T20:47:45;102781.75;;;4.96;79.51
48095;BME280;33874;52.070;-0.516;2023-01-28T20:50:45;102775.77;;;4.97;79.63
48095;BME280;33874;52.070;-0.516;2023-01-28T20:53:23;102775.38;;;4.99;80.03
48095;BME280;33874;52.070;-0.516;2023-01-28T21:02:09;102773.34;;;4.92;79.72
48095;BME280;33874;52.070;-0.516;2023-01-28T21:04:59;102766.48;;;4.87;79.54
48095;BME280;33874;52.070;-0.516;2023-01-28T21:07:27;102763.54;;;4.87;79.81
48095;BME280;33874;52.070;-0.516;2023-01-28T21:09:59;102762.66;;;4.87;79.93
48095;BME280;33874;52.070;-0.516;2023-01-28T21:12:32;102763.00;;;4.88;80.01
48095;BME280;33874;52.070;-0.516;2023-01-28T21:15:01;102761.08;;;4.88;79.98
48095;BME280;33874;52.070;-0.516;2023-01-28T21:17:32;102761.81;;;4.86;79.84
48095;BME280;33874;52.070;-0.516;2023-01-28T21:20:20;102757.33;;;4.85;79.86
48095;BME280;33874;52.070;-0.516;2023-01-28T21:26:40;102759.25;;;4.91;80.38
48095;BME280;33874;52.070;-0.516;2023-01-28T21:29:12;102759.17;;;4.93;80.35
48095;BME280;33874;52.070;-0.516;2023-01-28T21:32:10;102760.14;;;4.96;80.34
48095;BME280;33874;52.070;-0.516;2023-01-28T21:34:42;102764.91;;;5.00;80.57
48095;BME280;33874;52.070;-0.516;2023-01-28T21:37:34;102767.83;;;5.01;80.41
48095;BME280;33874;52.070;-0.516;2023-01-28T21:40:10;102771.09;;;5.03;80.33
48095;BME280;33874;52.070;-0.516;2023-01-28T21:42:45;102771.05;;;5.04;80.37
48095;BME280;33874;52.070;-0.516;2023-01-28T21:45:35;102773.14;;;5.04;80.49
48095;BME280;33874;52.070;-0.516;2023-01-28T21:51:23;102772.34;;;5.02;80.43
48095;BME280;33874;52.070;-0.516;2023-01-28T21:57:49;102756.17;;;5.00;80.49
48095;BME280;33874;52.070;-0.516;2023-01-28T22:04:06;102739.70;;;5.03;80.67
48095;BME280;33874;52.070;-0.516;2023-01-28T22:06:34;102740.00;;;5.05;80.72
48095;BME280;33874;52.070;-0.516;2023-01-28T22:09:03;102733.32;;;5.07;80.83
48095;BME280;33874;52.070;-0.516;2023-01-28T22:11:33;102733.48;;;5.08;80.61
48095;BME280;33874;52.070;-0.516;2023-01-28T22:14:07;102736.27;;;5.08;80.72
48095;BME280;33874;52.070;-0.516;2023-01-28T22:16:35;102740.63;;;5.08;80.73
48095;BME280;33874;52.070;-0.516;2023-01-28T22:19:24;102742.17;;;5.08;80.60
48095;BME280;33874;52.070;-0.516;2023-01-28T22:21:56;102747.77;;;5.08;80.65
48095;BME280;33874;52.070;-0.516;2023-01-28T22:24:27;102753.88;;;5.07;80.74
48095;BME280;33874;52.070;-0.516;2023-01-28T22:27:02;102753.21;;;5.06;80.73
48095;BME280;33874;52.070;-0.516;2023-01-28T22:29:50;102741.91;;;5.06;80.78
48095;BME280;33874;52.070;-0.516;2023-01-28T22:32:20;102737.55;;;5.05;80.79
48095;BME280;33874;52.070;-0.516;2023-01-28T22:35:00;102736.85;;;5.06;80.89
48095;BME280;33874;52.070;-0.516;2023-01-28T22:37:31;102729.39;;;5.05;80.83
48095;BME280;33874;52.070;-0.516;2023-01-28T22:40:02;102717.02;;;5.04;80.91
48095;BME280;33874;52.070;-0.516;2023-01-28T22:42:32;102711.81;;;5.03;80.87
48095;BME280;33874;52.070;-0.516;2023-01-28T22:47:51;102710.85;;;5.01;80.92
48095;BME280;33874;52.070;-0.516;2023-01-28T22:50:20;102710.90;;;4.99;80.80